Terminal Aerodrome Forecast
Issued by NWS Louisville, KY

Home | Current Version | Previous Version | Text Only | Print | Product List | Glossary On
Versions: 1 2 3 4 5 6 7 8 9 10 11 12 13 14 15 16 17
700
FTUS43 KLMK 250958 AAB
TAFBWG
TAF AMD
KBWG 250958Z 2510/2606 00000KT 3SM BR FEW250
      TEMPO 2510/2512 1/2SM FG
     FM251200 00000KT 3SM BR SKC
     FM251300 VRB03KT P6SM SCT050=

USA.gov is the U.S. government's official web portal to all federal, state and local government web resources and services.